Latest Weather Observations for Canterbury

IDN60801

Issued at 4:32 am EDT Thursday 2 April 2015 (issued every 30 minutes, with the page automatically refreshed every 10 minutes)

About weather observations | Map of weather stations | Latest weather observations for NSW | Other Formats
Station Details ID: 066194 Name: CANTERBURY RACECOURSE AWS Lat: -33.91 Lon: 151.11 Height: 3.0 m
Data from the previous 72 hours. | See also: Recent months at Canterbury
Date/Time
EDT
Temp
°C
App
Temp
°C
Dew
Point
Rel
Hum
%
Delta-T
°C
Wind Press
QNH
hPa
Press
MSL
hPa
Rain
since 9 am
mm
Dir
 
Spd
km/h
Gust
km/h
Spd
kts
Gust
kts
02/04:30am 14.9 16.3 14.4 97 0.3 CALM 0 0 0 0 - - 0.8
02/04:24am 14.8 16.2 14.3 97 0.3 CALM 0 0 0 0 - - 0.8
02/04:00am 15.0 16.4 14.5 97 0.3 CALM 0 0 0 0 - - 0.8
02/03:58am 15.1 16.6 14.6 97 0.3 CALM 0 0 0 0 - - 0.8
02/03:30am 15.0 16.3 14.2 95 0.5 CALM 0 0 0 0 - - 0.8
02/03:22am 15.3 16.8 14.7 96 0.3 CALM 0 0 0 0 - - 0.8
02/03:00am 14.9 16.2 14.1 95 0.5 CALM 0 0 0 0 - - 0.8
02/02:30am 15.2 16.6 14.4 95 0.5 CALM 0 0 0 0 - - 0.8
02/02:14am 15.5 17.0 14.7 95 0.5 CALM 0 0 0 0 - - 0.8
02/02:11am 15.6 17.2 14.8 95 0.5 CALM 0 0 0 0 - - 0.8
02/02:00am 15.5 17.0 14.7 95 0.5 CALM 0 0 0 0 - - 0.8
02/01:32am 15.9 17.5 14.9 94 0.6 CALM 0 0 0 0 - - 0.8
02/01:30am 15.7 17.2 14.7 94 0.6 CALM 0 0 0 0 - - 0.8
02/01:12am 15.7 17.2 14.7 94 0.6 CALM 0 0 0 0 - - 0.8
02/01:00am 15.9 17.5 14.8 93 0.6 CALM 0 0 0 0 - - 0.8
02/12:30am 16.5 18.3 15.5 94 0.6 CALM 0 0 0 0 - - 0.8
02/12:00am 16.4 18.0 14.9 91 0.9 CALM 0 0 0 0 - - 0.8
 
Date/Time
EDT
Temp
°C
App
Temp
°C
Dew
Point
Rel
Hum
%
Delta-T
°C
Wind Press
QNH
hPa
Press
MSL
hPa
Rain
since 9 am
mm
Dir
 
Spd
km/h
Gust
km/h
Spd
kts
Gust
kts
01/11:30pm 17.1 18.6 15.6 91 0.9 NW 2 6 1 3 - - 0.8
01/11:00pm 17.7 19.5 15.5 87 1.3 CALM 0 0 0 0 - - 0.8
01/10:30pm 18.8 20.4 15.9 83 1.7 N 2 7 1 4 - - 0.8
01/10:00pm 19.2 20.0 15.9 81 2.0 NNE 6 9 3 5 - - 0.8
01/09:30pm 19.7 20.4 16.0 79 2.2 NNE 7 11 4 6 - - 0.8
01/09:00pm 20.0 20.7 16.0 78 2.4 NE 7 13 4 7 - - 0.8
01/08:30pm 20.3 21.1 16.3 78 2.4 NNE 7 15 4 8 - - 0.8
01/08:00pm 20.5 20.5 16.3 77 2.5 NE 11 17 6 9 - - 0.8
01/07:30pm 20.8 20.9 16.4 76 2.7 NE 11 17 6 9 - - 0.8
01/07:00pm 21.1 20.3 16.1 73 3.0 NE 15 22 8 12 - - 0.8
01/06:30pm 21.7 21.0 15.5 68 3.7 NE 13 24 7 13 - - 0.8
01/06:00pm 22.4 22.2 15.7 66 4.0 NE 11 17 6 9 - - 0.8
01/05:30pm 22.6 21.6 15.7 65 4.1 NE 15 22 8 12 - - 0.8
01/05:00pm 23.0 21.9 15.3 62 4.6 NE 15 22 8 12 - - 0.8
01/04:30pm 23.0 22.1 16.8 68 3.8 ENE 17 24 9 13 - - 0.8
01/04:00pm 23.1 23.5 18.2 74 3.1 ENE 13 19 7 10 - - 0.8
01/03:30pm 22.2 23.5 17.6 75 2.8 NE 7 9 4 5 - - 0.8
01/03:06pm 21.4 23.6 17.4 78 2.5 WNW 2 6 1 3 - - 0.8
01/03:00pm 21.2 22.6 17.4 79 2.3 WNW 6 13 3 7 - - 0.8
01/02:51pm 20.7 21.3 16.9 79 2.3 NNE 9 17 5 9 - - 0.8
01/02:30pm 21.5 22.4 16.0 71 3.3 NE 6 13 3 7 - - 0.6
01/02:00pm 23.2 25.6 17.9 72 3.3 N 2 9 1 5 - - 0.6
01/01:52pm 22.0 24.0 17.8 77 2.6 NNE 4 7 2 4 - - 0.6
01/01:51pm 21.8 23.1 17.2 75 2.8 NNE 6 7 3 4 - - 0.6
01/01:32pm 21.1 21.9 15.9 72 3.1 NE 6 17 3 9 - - 0.2
01/01:30pm 21.7 23.1 16.4 72 3.2 NE 4 9 2 5 - - 0.2
01/01:00pm 22.3 23.7 16.3 69 3.6 WNW 4 11 2 6 - - 0.0
01/12:30pm 22.6 23.0 16.2 67 3.9 NNW 9 15 5 8 - - 0.0
01/12:00pm 22.6 22.1 15.9 66 4.0 N 13 19 7 10 - - 0.0
01/11:30am 21.9 21.8 16.0 69 3.6 NNW 11 17 6 9 - - 0.0
01/11:00am 21.5 21.5 17.1 76 2.7 N 13 17 7 9 - - 0.0
01/10:30am 20.3 21.7 16.5 79 2.3 WNW 4 7 2 4 - - 0.0
01/10:00am 19.7 20.7 16.3 81 2.0 NW 6 9 3 5 - - 0.0
01/09:30am 18.7 20.0 17.0 90 1.0 WNW 6 9 3 5 - - 0.0
01/09:00am 17.4 18.3 16.6 95 0.5 WNW 7 11 4 6 - - 18.0
01/08:30am 16.6 18.0 16.4 99 0.1 NW 4 9 2 5 - - 18.0
01/08:00am 16.2 17.8 16.0 99 0.1 WNW 2 6 1 3 - - 18.0
01/07:58am 16.1 18.1 15.9 99 0.1 CALM 0 0 0 0 - - 18.0
01/07:30am 14.8 16.2 14.3 97 0.3 CALM 0 0 0 0 - - 18.0
01/07:07am 15.3 16.9 15.0 98 0.2 CALM 0 0 0 0 - - 18.0
01/07:00am 15.5 17.2 15.2 98 0.2 CALM 0 0 0 0 - - 18.0
01/06:30am 15.8 16.5 15.5 98 0.2 WNW 6 7 3 4 - - 18.0
01/06:00am 15.9 16.6 15.7 99 0.1 SE 6 9 3 5 - - 17.8
01/05:30am 14.7 16.0 14.2 97 0.3 CALM 0 0 0 0 - - 15.6
01/05:00am 15.1 16.5 14.5 96 0.3 CALM 0 0 0 0 - - 15.6
01/04:30am 15.2 16.7 14.6 96 0.3 CALM 0 0 0 0 - - 15.6
01/04:23am 15.5 17.1 14.9 96 0.3 CALM 0 0 0 0 - - 15.6
01/04:00am 16.0 17.8 15.5 97 0.3 CALM 0 6 0 3 - - 15.6
01/03:30am 16.1 17.2 15.6 97 0.3 NW 4 7 2 4 - - 15.6
01/03:19am 16.1 17.9 15.6 97 0.3 CALM 0 6 0 3 - - 15.6
01/03:00am 16.3 16.9 15.8 97 0.3 WNW 7 11 4 6 - - 15.4
01/02:41am 16.4 17.7 16.1 98 0.2 NNW 4 7 2 4 - - 13.6
01/02:39am 16.4 18.1 16.1 98 0.2 N 2 7 1 4 - - 13.6
01/02:38am 16.4 18.1 16.1 98 0.2 NNW 2 7 1 4 - - 13.6
01/02:30am 16.4 17.1 16.1 98 0.2 NNW 7 13 4 7 - - 13.6
01/02:20am 16.4 16.0 16.1 98 0.2 NNW 13 20 7 11 - - 13.4
01/02:00am 14.9 16.3 14.4 97 0.3 CALM 0 0 0 0 - - 13.2
01/01:36am 14.9 16.3 14.4 97 0.3 CALM 0 0 0 0 - - 13.2
01/01:30am 14.8 16.2 14.3 97 0.3 CALM 0 0 0 0 - - 13.2
01/01:06am 14.8 16.1 14.2 96 0.3 CALM 0 0 0 0 - - 13.2
01/01:00am 14.4 15.6 13.8 96 0.3 CALM 0 0 0 0 - - 13.2
01/12:35am 14.4 15.6 13.8 96 0.3 CALM 0 0 0 0 - - 13.2
01/12:30am 14.7 16.0 14.1 96 0.3 CALM 0 0 0 0 - - 13.2
01/12:07am 14.7 16.0 14.1 96 0.3 CALM 0 0 0 0 - - 13.2
01/12:00am 14.7 16.0 14.1 96 0.3 CALM 0 0 0 0 - - 13.2
 
Date/Time
EDT
Temp
°C
App
Temp
°C
Dew
Point
Rel
Hum
%
Delta-T
°C
Wind Press
QNH
hPa
Press
MSL
hPa
Rain
since 9 am
mm
Dir
 
Spd
km/h
Gust
km/h
Spd
kts
Gust
kts
31/11:57pm 14.7 16.0 14.1 96 0.3 CALM 0 0 0 0 - - 13.2
31/11:37pm 14.6 15.8 13.8 95 0.4 CALM 0 0 0 0 - - 13.2
31/11:30pm 14.9 16.2 14.1 95 0.5 CALM 0 0 0 0 - - 13.2
31/11:00pm 15.0 16.3 14.0 94 0.6 CALM 0 0 0 0 - - 13.2
31/10:30pm 14.9 16.0 13.6 92 0.7 CALM 0 0 0 0 - - 13.2
31/10:00pm 15.2 16.4 13.7 91 0.8 CALM 0 0 0 0 - - 13.2
31/09:30pm 15.6 17.0 14.3 92 0.7 CALM 0 0 0 0 - - 13.2
31/09:00pm 15.9 17.2 14.1 89 1.0 CALM 0 0 0 0 - - 13.2
31/08:43pm 16.3 17.7 14.5 89 1.0 CALM 0 0 0 0 - - 13.2
31/08:30pm 16.4 17.9 14.6 89 1.0 CALM 0 0 0 0 - - 13.2
31/08:21pm 16.6 18.1 14.6 88 1.1 CALM 0 0 0 0 - - 13.2
31/08:00pm 16.5 16.9 13.8 84 1.5 ESE 4 6 2 3 - - 13.2
31/07:30pm 17.7 18.0 14.4 81 1.9 SE 6 7 3 4 - - 13.2
31/07:00pm 18.6 18.3 14.5 77 2.4 SE 9 11 5 6 - - 13.2
31/06:30pm 19.5 18.7 14.1 71 3.1 ESE 11 15 6 8 - - 13.2
31/06:00pm 20.5 18.8 13.5 64 4.0 ESE 15 20 8 11 - - 13.2
31/05:30pm 21.1 18.9 13.3 61 4.5 ESE 17 22 9 12 - - 13.2
31/05:00pm 21.1 19.1 12.8 59 4.7 ESE 15 20 8 11 - - 13.2
31/04:30pm 21.1 19.6 14.3 65 4.0 SSE 15 20 8 11 - - 13.2
31/04:00pm 20.6 20.7 16.4 77 2.5 SSE 11 15 6 8 - - 13.2
31/03:30pm 20.0 20.8 17.2 84 1.7 SSE 9 15 5 8 - - 13.2
31/03:00pm 20.2 20.3 15.6 75 2.7 S 9 13 5 7 - - 13.2
31/02:30pm 20.3 20.7 15.3 73 3.0 WNW 7 13 4 7 - - 13.2
31/02:00pm 20.5 21.3 16.3 77 2.5 NW 7 11 4 6 - - 13.2
31/01:30pm 19.5 21.4 16.7 84 1.7 NNW 2 6 1 3 - - 13.2
31/01:00pm 18.7 19.8 16.5 87 1.3 NW 6 7 3 4 - - 13.2
31/12:30pm 18.1 19.3 17.3 95 0.5 SSE 7 9 4 5 - - 13.2
31/12:18pm 17.9 18.2 17.1 95 0.5 SSE 11 13 6 7 - - 13.2
31/12:00pm 17.6 17.4 16.6 94 0.6 SE 13 17 7 9 - - 12.8
31/11:40am 18.2 18.3 16.5 90 1.0 S 11 20 6 11 - - 2.8
31/11:30am 18.1 17.4 16.3 89 1.1 WSW 15 20 8 11 - - 2.0
31/11:27am 18.1 17.2 15.9 87 1.3 W 15 20 8 11 - - 2.0
31/11:12am 19.1 19.0 16.1 83 1.8 SSW 11 19 6 10 - - 1.8
31/11:00am 19.3 17.7 16.0 81 2.0 SSE 19 28 10 15 - - 0.0
31/10:30am 19.8 19.8 16.3 80 2.1 S 11 15 6 8 - - 0.0
31/10:00am 20.0 19.6 16.2 79 2.3 SE 13 19 7 10 - - 0.0
31/09:30am 19.6 19.2 16.3 81 2.0 SSE 13 19 7 10 - - 0.0
31/09:00am 18.9 20.8 16.7 87 1.3 NW 2 6 1 3 - - 0.8
31/08:30am 18.3 19.5 16.8 91 0.9 NW 6 7 3 4 - - 0.8
31/08:00am 16.6 18.4 15.5 93 0.6 CALM 0 0 0 0 - - 0.8
31/07:30am 16.3 17.9 15.0 92 0.8 CALM 0 0 0 0 - - 0.8
31/07:00am 16.2 17.8 14.9 92 0.7 CALM 0 0 0 0 - - 0.8
31/06:30am 16.3 17.9 14.8 91 0.9 CALM 0 0 0 0 - - 0.8
31/06:00am 16.3 17.8 14.7 90 0.9 CALM 0 0 0 0 - - 0.8
31/05:30am 16.4 17.9 14.6 89 1.0 CALM 0 0 0 0 - - 0.8
31/05:00am 16.5 17.9 14.3 87 1.3 CALM 0 0 0 0 - - 0.8
31/04:30am 16.9 18.4 14.7 87 1.3 CALM 0 4 0 2 - - 0.8
31/04:00am 17.1 16.3 15.1 88 1.2 WSW 13 17 7 9 - - 0.8
31/03:30am 16.8 18.2 15.5 92 0.8 NNW 2 7 1 4 - - 0.8
31/03:00am 16.3 17.7 14.3 88 1.1 CALM 0 0 0 0 - - 0.8
31/02:30am 16.7 18.2 14.7 88 1.1 CALM 0 0 0 0 - - 0.8
31/02:00am 17.0 18.5 14.6 86 1.4 CALM 0 0 0 0 - - 0.8
31/01:30am 17.5 18.7 14.8 84 1.6 NE 2 6 1 3 - - 0.8
31/01:00am 17.6 19.2 15.0 85 1.5 CALM 0 0 0 0 - - 0.8
31/12:30am 17.7 19.3 14.8 83 1.7 CALM 0 0 0 0 - - 0.8
31/12:00am 18.1 18.6 15.5 85 1.5 ESE 7 11 4 6 - - 0.8
 
Date/Time
EDT
Temp
°C
App
Temp
°C
Dew
Point
Rel
Hum
%
Delta-T
°C
Wind Press
QNH
hPa
Press
MSL
hPa
Rain
since 9 am
mm
Dir
 
Spd
km/h
Gust
km/h
Spd
kts
Gust
kts
30/11:30pm 18.5 19.2 16.1 86 1.4 ENE 7 9 4 5 - - 0.6
30/11:00pm 17.9 19.0 15.7 87 1.3 SSE 4 7 2 4 - - 0.6
30/10:30pm 18.1 18.7 15.4 84 1.6 SE 6 7 3 4 - - 0.6
30/10:00pm 18.0 19.5 14.7 81 1.9 CALM 0 0 0 0 - - 0.6
30/09:30pm 18.2 19.4 14.9 81 1.9 ESE 2 6 1 3 - - 0.6
30/09:00pm 18.7 20.2 14.6 77 2.4 CALM 0 6 0 3 - - 0.6
30/08:30pm 18.9 19.2 15.0 78 2.3 E 7 9 4 5 - - 0.6
30/08:00pm 18.9 20.4 14.6 76 2.5 CALM 0 6 0 3 - - 0.6
30/07:30pm 19.6 19.8 14.6 73 2.9 ENE 7 9 4 5 - - 0.6
30/07:00pm 19.7 20.0 14.5 72 3.0 NE 6 9 3 5 - - 0.6
30/06:30pm 20.2 19.8 14.1 68 3.5 ENE 9 11 5 6 - - 0.6
30/06:00pm 20.5 18.7 12.2 59 4.6 E 13 19 7 10 - - 0.6
30/05:30pm 20.8 20.1 13.3 62 4.3 ENE 9 15 5 8 - - 0.6
30/05:00pm 21.6 20.7 13.8 61 4.5 ENE 11 15 6 8 - - 0.6
30/04:30pm 21.9 19.3 13.3 58 4.9 E 19 28 10 15 - - 0.6
30/04:00pm 21.6 19.7 14.3 63 4.3 E 17 22 9 12 - - 0.6
30/03:30pm 22.1 20.3 14.5 62 4.5 ENE 17 28 9 15 - - 0.6
30/03:00pm 23.6 21.5 12.3 49 6.4 ENE 15 22 8 12 - - 0.6
30/02:30pm 23.5 22.7 12.8 51 6.1 E 9 17 5 9 - - 0.6
30/02:00pm 22.0 21.1 12.5 54 5.4 E 9 15 5 8 - - 0.6
30/01:30pm 20.8 20.6 14.7 68 3.6 SE 9 11 5 6 - - 0.6
30/01:00pm 19.6 19.5 15.0 75 2.7 E 9 13 5 7 - - 0.6
30/12:30pm 18.8 19.6 13.6 72 3.0 ENE 2 7 1 4 - - 0.6
30/12:00pm 17.6 17.2 14.1 80 2.0 NNE 9 13 5 7 - - 0.6
30/11:30am 16.5 15.8 13.2 81 1.8 SE 9 17 5 9 - - 0.6
30/11:00am 16.1 12.7 13.8 86 1.3 SE 24 32 13 17 - - 0.6
30/10:30am 16.4 13.8 13.3 82 1.7 SE 19 22 10 12 - - 0.4
30/10:00am 18.3 17.2 14.4 78 2.2 N 13 24 7 13 - - 0.0
30/09:30am 18.1 19.7 14.8 81 1.9 CALM 0 0 0 0 - - 0.0
30/09:00am 17.5 17.9 14.8 84 1.6 SW 6 9 3 5 - - 0.0
30/08:30am 16.8 17.0 14.1 84 1.5 W 6 11 3 6 - - 0.0
30/08:00am 16.3 16.3 14.1 87 1.2 WNW 7 11 4 6 - - 0.0
30/07:30am 16.0 16.1 14.0 88 1.1 NNW 6 7 3 4 - - 0.0
30/07:00am 15.9 17.1 13.9 88 1.1 CALM 0 6 0 3 - - 0.0
30/06:30am 15.8 17.0 13.8 88 1.1 CALM 0 0 0 0 - - 0.0
30/06:00am 15.8 17.1 14.2 90 0.9 CALM 0 0 0 0 - - 0.0
30/05:30am 15.8 17.1 14.0 89 1.0 CALM 0 0 0 0 - - 0.0
30/05:00am 15.9 16.1 14.3 90 0.9 NW 6 7 3 4 - - 0.0

Other Formats:

Comma delimited format used in spreadsheet applications
http://www.bom.gov.au/fwo/IDN60801/IDN60801.94766.axf

JavaScript Object Notation format (JSON) in row-major order
http://www.bom.gov.au/fwo/IDN60801/IDN60801.94766.json